Time,TemperatureF,DewpointF,PressureIn,WindDirection,WindDirectionDegrees,WindSpeedMPH,WindSpeedGustMPH,Humidity,HourlyPrecipIn,Conditions,Clouds,dailyrainin,SoftwareType,DateUTC
2013-08-25 00:00:00,50.5,49.1,30.35,NNW,330,0.0,0.0,95,0.00,,,0.00,Wunderground v.1.15,2013-08-25 04:00:00,
2013-08-25 00:05:00,50.4,49.0,30.35,NNW,330,0.0,0.0,95,0.00,,,0.00,Wunderground v.1.15,2013-08-25 04:05:00,
2013-08-25 00:10:00,50.2,48.8,30.35,NNW,330,0.0,0.0,95,0.00,,,0.00,Wunderground v.1.15,2013-08-25 04:10:00,
2013-08-25 00:15:00,50.1,48.7,30.35,NNW,330,0.0,0.0,95,0.00,,,0.00,Wunderground v.1.15,2013-08-25 04:15:00,
2013-08-25 00:20:00,49.9,48.5,30.35,NNW,330,0.0,0.0,95,0.00,,,0.00,Wunderground v.1.15,2013-08-25 04:20:00,
2013-08-25 00:30:00,49.8,48.7,30.35,NNW,330,0.0,0.0,96,0.00,,,0.00,Wunderground v.1.15,2013-08-25 04:30:00,
2013-08-25 00:40:00,49.5,48.4,30.35,NNW,330,0.0,0.0,96,0.00,,,0.00,Wunderground v.1.15,2013-08-25 04:40:00,
2013-08-25 00:45:00,49.5,48.4,30.35,NNW,330,0.0,0.0,96,0.00,,,0.00,Wunderground v.1.15,2013-08-25 04:45:00,
2013-08-25 00:50:00,49.4,48.3,30.35,NNW,330,0.0,0.0,96,0.00,,,0.00,Wunderground v.1.15,2013-08-25 04:50:00,
2013-08-25 00:55:00,49.2,48.1,30.36,NNW,330,0.0,0.0,96,0.00,,,0.00,Wunderground v.1.15,2013-08-25 04:55:00,
2013-08-25 01:05:00,48.9,47.8,30.35,NNW,330,0.0,0.0,96,0.00,,,0.00,Wunderground v.1.15,2013-08-25 05:05:00,
2013-08-25 01:10:00,48.9,47.8,30.35,NNW,330,0.0,0.0,96,0.00,,,0.00,Wunderground v.1.15,2013-08-25 05:10:00,
2013-08-25 01:15:00,48.8,47.7,30.35,NNW,330,0.0,0.0,96,0.00,,,0.00,Wunderground v.1.15,2013-08-25 05:15:00,
2013-08-25 01:20:00,48.6,47.5,30.35,NNW,330,0.0,0.0,96,0.00,,,0.00,Wunderground v.1.15,2013-08-25 05:20:00,
2013-08-25 01:25:00,48.5,47.4,30.35,NNW,330,0.0,0.0,96,0.00,,,0.00,Wunderground v.1.15,2013-08-25 05:25:00,
2013-08-25 01:30:00,48.3,47.2,30.35,NNW,330,0.0,0.0,96,0.00,,,0.00,Wunderground v.1.15,2013-08-25 05:30:00,
2013-08-25 01:35:00,48.3,47.2,30.35,NNW,330,0.0,0.0,96,0.00,,,0.00,Wunderground v.1.15,2013-08-25 05:35:00,
2013-08-25 01:40:00,48.2,47.1,30.35,NNW,330,0.0,0.0,96,0.00,,,0.00,Wunderground v.1.15,2013-08-25 05:40:00,
2013-08-25 01:45:00,48.0,46.9,30.35,NNW,330,0.0,0.0,96,0.00,,,0.00,Wunderground v.1.15,2013-08-25 05:45:00,
2013-08-25 01:50:00,47.9,46.8,30.35,NNW,330,0.0,0.0,96,0.00,,,0.00,Wunderground v.1.15,2013-08-25 05:50:00,
2013-08-25 01:55:00,47.9,46.8,30.35,NNW,330,0.0,0.0,96,0.00,,,0.00,Wunderground v.1.15,2013-08-25 05:55:00,
2013-08-25 02:00:00,47.7,46.6,30.35,NNW,330,0.0,0.0,96,0.00,,,0.00,Wunderground v.1.15,2013-08-25 06:00:00,
2013-08-25 02:10:00,47.7,46.6,30.34,NNW,330,0.0,0.0,96,0.00,,,0.00,Wunderground v.1.15,2013-08-25 06:10:00,
2013-08-25 02:15:00,47.6,46.8,30.35,NNW,330,0.0,0.0,97,0.00,,,0.00,Wunderground v.1.15,2013-08-25 06:15:00,
2013-08-25 02:20:00,47.6,46.8,30.35,NNW,330,0.0,0.0,97,0.00,,,0.00,Wunderground v.1.15,2013-08-25 06:20:00,
2013-08-25 02:25:00,47.6,46.8,30.35,NNW,330,0.0,0.0,97,0.00,,,0.00,Wunderground v.1.15,2013-08-25 06:25:00,
2013-08-25 02:30:00,47.6,46.8,30.35,NNW,330,0.0,0.0,97,0.00,,,0.00,Wunderground v.1.15,2013-08-25 06:30:00,
2013-08-25 02:35:00,47.4,46.6,30.35,NNW,330,0.0,0.0,97,0.00,,,0.00,Wunderground v.1.15,2013-08-25 06:35:00,
2013-08-25 02:40:00,47.3,46.5,30.35,NNW,330,0.0,0.0,97,0.00,,,0.00,Wunderground v.1.15,2013-08-25 06:40:00,
2013-08-25 02:45:00,47.3,46.5,30.35,NNW,330,0.0,0.0,97,0.00,,,0.00,Wunderground v.1.15,2013-08-25 06:45:00,
2013-08-25 02:50:00,47.1,46.3,30.35,NNW,330,0.0,0.0,97,0.00,,,0.00,Wunderground v.1.15,2013-08-25 06:50:00,
2013-08-25 02:55:00,46.8,46.0,30.35,NNW,330,0.0,0.0,97,0.00,,,0.00,Wunderground v.1.15,2013-08-25 06:55:00,
2013-08-25 03:00:00,46.7,45.9,30.35,NNW,330,0.0,0.0,97,0.00,,,0.00,Wunderground v.1.15,2013-08-25 07:00:00,
2013-08-25 03:10:00,46.5,45.7,30.35,NNW,330,0.0,0.0,97,0.00,,,0.00,Wunderground v.1.15,2013-08-25 07:10:00,
2013-08-25 03:15:00,46.4,45.6,30.35,NNW,330,0.0,0.0,97,0.00,,,0.00,Wunderground v.1.15,2013-08-25 07:15:00,
2013-08-25 03:20:00,46.2,45.4,30.35,NNW,330,0.0,0.0,97,0.00,,,0.00,Wunderground v.1.15,2013-08-25 07:20:00,
2013-08-25 03:25:00,46.2,45.4,30.35,NNW,330,0.0,0.0,97,0.00,,,0.00,Wunderground v.1.15,2013-08-25 07:25:00,
2013-08-25 03:30:00,46.1,45.3,30.35,NNW,330,0.0,0.0,97,0.00,,,0.00,Wunderground v.1.15,2013-08-25 07:30:00,
2013-08-25 03:35:00,46.0,45.2,30.35,NNW,330,0.0,0.0,97,0.00,,,0.00,Wunderground v.1.15,2013-08-25 07:35:00,
2013-08-25 03:45:00,45.8,45.0,30.36,NNW,330,0.0,0.0,97,0.00,,,0.00,Wunderground v.1.15,2013-08-25 07:45:00,
2013-08-25 03:50:00,45.7,44.9,30.36,NNW,330,0.0,0.0,97,0.00,,,0.00,Wunderground v.1.15,2013-08-25 07:50:00,
2013-08-25 03:55:00,45.7,44.9,30.36,NNW,330,0.0,0.0,97,0.00,,,0.00,Wunderground v.1.15,2013-08-25 07:55:00,
2013-08-25 04:00:00,45.5,44.7,30.36,NNW,330,0.0,0.0,97,0.00,,,0.00,Wunderground v.1.15,2013-08-25 08:00:00,
2013-08-25 04:10:00,45.4,44.6,30.36,NNW,330,0.0,0.0,97,0.00,,,0.00,Wunderground v.1.15,2013-08-25 08:10:00,
2013-08-25 04:15:00,45.2,44.4,30.36,NNW,330,0.0,0.0,97,0.00,,,0.00,Wunderground v.1.15,2013-08-25 08:15:00,
2013-08-25 04:20:00,45.1,44.3,30.36,NNW,330,0.0,0.0,97,0.00,,,0.00,Wunderground v.1.15,2013-08-25 08:20:00,
2013-08-25 04:25:00,44.9,44.1,30.37,NNW,330,0.0,0.0,97,0.00,,,0.00,Wunderground v.1.15,2013-08-25 08:25:00,
2013-08-25 04:30:00,44.9,44.1,30.37,NNW,330,0.0,0.0,97,0.00,,,0.00,Wunderground v.1.15,2013-08-25 08:30:00,
2013-08-25 04:35:00,44.8,44.0,30.37,NNW,330,0.0,0.0,97,0.00,,,0.00,Wunderground v.1.15,2013-08-25 08:35:00,
2013-08-25 04:40:00,44.6,43.8,30.37,NNW,330,0.0,0.0,97,0.00,,,0.00,Wunderground v.1.15,2013-08-25 08:40:00,
2013-08-25 04:45:00,44.6,43.8,30.37,NNW,330,0.0,0.0,97,0.00,,,0.00,Wunderground v.1.15,2013-08-25 08:45:00,
2013-08-25 04:50:00,44.5,43.7,30.38,NNW,330,0.0,0.0,97,0.00,,,0.00,Wunderground v.1.15,2013-08-25 08:50:00,
2013-08-25 04:55:00,44.5,43.7,30.38,NNW,330,0.0,0.0,97,0.00,,,0.00,Wunderground v.1.15,2013-08-25 08:55:00,
2013-08-25 05:00:00,44.5,43.7,30.38,NNW,330,0.0,0.0,97,0.00,,,0.00,Wunderground v.1.15,2013-08-25 09:00:00,
2013-08-25 05:10:00,44.6,44.1,30.38,NNW,330,0.0,0.0,98,0.00,,,0.00,Wunderground v.1.15,2013-08-25 09:10:00,
2013-08-25 05:15:00,44.6,44.1,30.38,NNW,330,0.0,0.0,98,0.00,,,0.00,Wunderground v.1.15,2013-08-25 09:15:00,
2013-08-25 05:20:00,44.6,44.1,30.38,NNW,330,0.0,0.0,98,0.00,,,0.00,Wunderground v.1.15,2013-08-25 09:20:00,
2013-08-25 05:25:00,44.6,44.1,30.38,NNW,330,0.0,0.0,98,0.00,,,0.00,Wunderground v.1.15,2013-08-25 09:25:00,
2013-08-25 05:30:00,44.8,44.5,30.38,NNW,330,0.0,0.0,99,0.00,,,0.00,Wunderground v.1.15,2013-08-25 09:30:00,
2013-08-25 05:35:00,44.9,44.6,30.39,NNW,330,0.0,0.0,99,0.00,,,0.00,Wunderground v.1.15,2013-08-25 09:35:00,
2013-08-25 05:45:00,45.1,44.8,30.39,NNW,330,0.0,0.0,99,0.00,,,0.00,Wunderground v.1.15,2013-08-25 09:45:00,
2013-08-25 05:50:00,45.2,44.9,30.39,NNW,330,0.0,0.0,99,0.00,,,0.00,Wunderground v.1.15,2013-08-25 09:50:00,
2013-08-25 05:55:00,45.2,44.9,30.39,NNW,330,0.0,0.0,99,0.00,,,0.00,Wunderground v.1.15,2013-08-25 09:55:00,
2013-08-25 06:00:00,45.4,45.1,30.40,NNW,330,0.0,0.0,99,0.00,,,0.00,Wunderground v.1.15,2013-08-25 10:00:00,
2013-08-25 06:05:00,45.5,45.2,30.40,NNW,330,0.0,0.0,99,0.00,,,0.00,Wunderground v.1.15,2013-08-25 10:05:00,
2013-08-25 06:15:00,45.7,45.7,30.40,NNW,330,0.0,0.0,100,0.00,,,0.00,Wunderground v.1.15,2013-08-25 10:15:00,
2013-08-25 06:20:00,45.7,45.7,30.40,NNW,330,0.0,0.0,100,0.00,,,0.00,Wunderground v.1.15,2013-08-25 10:20:00,
2013-08-25 06:25:00,45.8,45.8,30.40,NNW,330,0.0,0.0,100,0.00,,,0.00,Wunderground v.1.15,2013-08-25 10:25:00,
2013-08-25 06:35:00,46.0,46.0,30.40,NNW,330,0.0,0.0,100,0.00,,,0.00,Wunderground v.1.15,2013-08-25 10:35:00,
2013-08-25 06:40:00,46.0,46.0,30.40,NNW,330,0.0,0.0,100,0.00,,,0.00,Wunderground v.1.15,2013-08-25 10:40:00,
2013-08-25 06:50:00,46.1,46.1,30.41,NNW,330,0.0,0.0,100,0.00,,,0.00,Wunderground v.1.15,2013-08-25 10:50:00,
2013-08-25 06:55:00,46.2,46.2,30.41,NNW,330,0.0,0.0,100,0.00,,,0.00,Wunderground v.1.15,2013-08-25 10:55:00,
2013-08-25 07:00:00,46.4,46.4,30.41,NNW,330,0.0,0.0,100,0.00,,,0.00,Wunderground v.1.15,2013-08-25 11:00:00,
2013-08-25 07:10:00,46.7,46.7,30.41,NNW,330,0.0,0.0,100,0.00,,,0.00,Wunderground v.1.15,2013-08-25 11:10:00,
2013-08-25 07:15:00,46.7,46.7,30.41,NNW,330,0.0,0.0,100,0.00,,,0.00,Wunderground v.1.15,2013-08-25 11:15:00,
2013-08-25 07:25:00,47.0,47.0,30.41,NNW,330,0.0,0.0,100,0.00,,,0.00,Wunderground v.1.15,2013-08-25 11:25:00,
2013-08-25 07:30:00,47.3,47.3,30.41,NNW,330,0.0,0.0,100,0.00,,,0.00,Wunderground v.1.15,2013-08-25 11:30:00,
2013-08-25 07:35:00,47.4,47.4,30.41,NNW,330,0.0,0.0,100,0.00,,,0.00,Wunderground v.1.15,2013-08-25 11:35:00,
2013-08-25 07:40:00,47.6,47.6,30.41,NNW,330,0.0,0.0,100,0.00,,,0.00,Wunderground v.1.15,2013-08-25 11:40:00,
2013-08-25 07:45:00,47.9,47.9,30.41,NNW,330,0.0,0.0,100,0.00,,,0.00,Wunderground v.1.15,2013-08-25 11:45:00,
2013-08-25 07:50:00,47.9,47.9,30.41,NNW,330,0.0,0.0,100,0.00,,,0.00,Wunderground v.1.15,2013-08-25 11:50:00,
2013-08-25 07:55:00,48.0,48.0,30.41,NNW,330,0.0,0.0,100,0.00,,,0.00,Wunderground v.1.15,2013-08-25 11:55:00,
2013-08-25 08:05:00,48.5,48.5,30.41,NNW,330,0.0,0.0,100,0.00,,,0.00,Wunderground v.1.15,2013-08-25 12:05:00,
2013-08-25 08:10:00,48.8,48.8,30.41,NNW,330,0.0,0.0,100,0.00,,,0.00,Wunderground v.1.15,2013-08-25 12:10:00,
2013-08-25 08:15:00,48.9,48.9,30.41,NNW,330,0.0,0.0,100,0.00,,,0.00,Wunderground v.1.15,2013-08-25 12:15:00,
2013-08-25 08:20:00,49.2,49.2,30.40,NNW,330,0.0,0.0,100,0.00,,,0.00,Wunderground v.1.15,2013-08-25 12:20:00,
2013-08-25 08:30:00,49.9,49.9,30.41,NNW,330,0.0,0.0,100,0.00,,,0.00,Wunderground v.1.15,2013-08-25 12:30:00,
2013-08-25 08:40:00,50.8,50.8,30.41,NNW,330,0.0,1.0,100,0.00,,,0.00,Wunderground v.1.15,2013-08-25 12:40:00,
2013-08-25 08:45:00,51.3,51.3,30.41,NNW,330,0.0,1.0,100,0.00,,,0.00,Wunderground v.1.15,2013-08-25 12:45:00,
2013-08-25 08:50:00,51.9,51.9,30.41,NNW,330,0.0,1.0,100,0.00,,,0.00,Wunderground v.1.15,2013-08-25 12:50:00,
2013-08-25 08:55:00,52.3,52.3,30.41,NNW,330,0.0,1.0,100,0.00,,,0.00,Wunderground v.1.15,2013-08-25 12:55:00,
2013-08-25 09:05:00,53.2,53.2,30.41,NNW,330,0.0,1.0,100,0.00,,,0.00,Wunderground v.1.15,2013-08-25 13:05:00,
2013-08-25 09:15:00,54.8,53.1,30.40,NNW,330,0.0,0.0,94,0.00,,,0.00,Wunderground v.1.15,2013-08-25 13:15:00,
2013-08-25 09:20:00,55.6,53.6,30.40,NNW,330,0.0,0.0,93,0.00,,,0.00,Wunderground v.1.15,2013-08-25 13:20:00,
2013-08-25 09:25:00,56.7,53.2,30.40,NNW,330,0.0,0.0,88,0.00,,,0.00,Wunderground v.1.15,2013-08-25 13:25:00,
2013-08-25 09:30:00,57.6,53.1,30.40,NNW,330,0.0,0.0,85,0.00,,,0.00,Wunderground v.1.15,2013-08-25 13:30:00,
2013-08-25 09:40:00,60.1,53.9,30.40,NNW,330,0.0,1.0,80,0.00,,,0.00,Wunderground v.1.15,2013-08-25 13:40:00,
2013-08-25 09:45:00,60.9,54.3,30.40,NNW,330,0.0,1.0,79,0.00,,,0.00,Wunderground v.1.15,2013-08-25 13:45:00,
2013-08-25 09:50:00,61.6,53.6,30.40,NNW,330,0.0,2.0,75,0.00,,,0.00,Wunderground v.1.15,2013-08-25 13:50:00,
2013-08-25 09:55:00,62.4,54.0,30.39,NNW,330,0.0,2.0,74,0.00,,,0.00,Wunderground v.1.15,2013-08-25 13:55:00,
2013-08-25 10:05:00,64.5,55.7,30.39,NNW,330,0.0,1.0,73,0.00,,,0.00,Wunderground v.1.15,2013-08-25 14:05:00,
2013-08-25 10:15:00,66.3,55.4,30.38,NNW,330,0.0,1.0,68,0.00,,,0.00,Wunderground v.1.15,2013-08-25 14:15:00,
2013-08-25 10:20:00,66.8,55.5,30.38,NNW,330,1.0,1.0,67,0.00,,,0.00,Wunderground v.1.15,2013-08-25 14:20:00,
2013-08-25 10:25:00,67.3,55.5,30.38,NNW,330,0.0,1.0,66,0.00,,,0.00,Wunderground v.1.15,2013-08-25 14:25:00,
2013-08-25 10:30:00,67.9,56.1,30.38,NNW,330,0.0,0.0,66,0.00,,,0.00,Wunderground v.1.15,2013-08-25 14:30:00,
2013-08-25 10:40:00,68.8,56.1,30.37,SE,130,0.0,2.0,64,0.00,,,0.00,Wunderground v.1.15,2013-08-25 14:40:00,
2013-08-25 10:45:00,69.4,58.4,30.37,SE,130,0.0,2.0,68,0.00,,,0.00,Wunderground v.1.15,2013-08-25 14:45:00,
2013-08-25 10:50:00,69.4,59.2,30.37,SSE,168,0.0,2.0,70,0.00,,,0.00,Wunderground v.1.15,2013-08-25 14:50:00,
2013-08-25 10:55:00,69.9,58.4,30.37,SSE,168,0.0,2.0,67,0.00,,,0.00,Wunderground v.1.15,2013-08-25 14:55:00,
2013-08-25 11:00:00,70.9,58.5,30.36,NE,36,0.0,2.0,65,0.00,,,0.00,Wunderground v.1.15,2013-08-25 15:00:00,
2013-08-25 11:10:00,72.0,57.8,30.35,North,5,0.0,0.0,61,0.00,,,0.00,Wunderground v.1.15,2013-08-25 15:10:00,
2013-08-25 11:15:00,72.8,58.6,30.35,North,5,0.0,0.0,61,0.00,,,0.00,Wunderground v.1.15,2013-08-25 15:15:00,
2013-08-25 11:25:00,73.9,58.7,30.34,SSE,157,1.0,1.0,59,0.00,,,0.00,Wunderground v.1.15,2013-08-25 15:25:00,
2013-08-25 11:30:00,74.2,57.5,30.34,East,82,0.0,0.0,56,0.00,,,0.00,Wunderground v.1.15,2013-08-25 15:30:00,
2013-08-25 11:35:00,73.9,56.7,30.34,ESE,102,0.0,3.0,55,0.00,,,0.00,Wunderground v.1.15,2013-08-25 15:35:00,
2013-08-25 11:40:00,73.9,58.2,30.33,SSE,159,1.0,1.0,58,0.00,,,0.00,Wunderground v.1.15,2013-08-25 15:40:00,
2013-08-25 11:45:00,74.0,54.2,30.33,SE,142,1.0,3.0,50,0.00,,,0.00,Wunderground v.1.15,2013-08-25 15:45:00,
2013-08-25 11:50:00,73.9,57.2,30.33,SSE,158,0.0,3.0,56,0.00,,,0.00,Wunderground v.1.15,2013-08-25 15:50:00,
2013-08-25 11:55:00,73.5,57.3,30.33,SSE,158,0.0,3.0,57,0.00,,,0.00,Wunderground v.1.15,2013-08-25 15:55:00,
2013-08-25 12:00:00,73.7,54.4,30.33,ESE,113,0.0,3.0,51,0.00,,,0.00,Wunderground v.1.15,2013-08-25 16:00:00,
2013-08-25 12:10:00,74.4,56.2,30.32,East,93,1.0,1.0,53,0.00,,,0.00,Wunderground v.1.15,2013-08-25 16:10:00,
2013-08-25 12:15:00,74.6,55.3,30.32,ESE,106,2.0,3.0,51,0.00,,,0.00,Wunderground v.1.15,2013-08-25 16:15:00,
2013-08-25 12:20:00,74.9,55.6,30.32,East,87,1.0,1.0,51,0.00,,,0.00,Wunderground v.1.15,2013-08-25 16:20:00,
2013-08-25 12:25:00,75.4,57.6,30.31,NE,44,0.0,1.0,54,0.00,,,0.00,Wunderground v.1.15,2013-08-25 16:25:00,
2013-08-25 12:35:00,75.8,54.1,30.31,South,185,0.0,2.0,47,0.00,,,0.00,Wunderground v.1.15,2013-08-25 16:35:00,
2013-08-25 12:45:00,76.0,56.0,30.31,SSW,206,0.0,2.0,50,0.00,,,0.00,Wunderground v.1.15,2013-08-25 16:45:00,
2013-08-25 12:50:00,76.1,55.0,30.30,SSW,210,1.0,2.0,48,0.00,,,0.00,Wunderground v.1.15,2013-08-25 16:50:00,
2013-08-25 12:55:00,76.3,56.8,30.30,SW,225,1.0,3.0,51,0.00,,,0.00,Wunderground v.1.15,2013-08-25 16:55:00,
2013-08-25 13:00:00,76.5,55.9,30.30,SE,127,1.0,2.0,49,0.00,,,0.00,Wunderground v.1.15,2013-08-25 17:00:00,
2013-08-25 13:05:00,76.7,55.5,30.30,SE,142,2.0,5.0,48,0.00,,,0.00,Wunderground v.1.15,2013-08-25 17:05:00,
2013-08-25 13:15:00,77.6,58.0,30.30,SE,138,1.0,2.0,51,0.00,,,0.00,Wunderground v.1.15,2013-08-25 17:15:00,
2013-08-25 13:20:00,77.7,57.0,30.30,South,178,1.0,3.0,49,0.00,,,0.00,Wunderground v.1.15,2013-08-25 17:20:00,
2013-08-25 13:25:00,78.1,59.6,30.30,South,171,2.0,3.0,53,0.00,,,0.00,Wunderground v.1.15,2013-08-25 17:25:00,
2013-08-25 13:30:00,78.1,56.2,30.30,SSE,168,2.0,2.0,47,0.00,,,0.00,Wunderground v.1.15,2013-08-25 17:30:00,
2013-08-25 13:35:00,77.9,56.0,30.30,SW,219,1.0,6.0,47,0.00,,,0.00,Wunderground v.1.15,2013-08-25 17:35:00,
2013-08-25 13:40:00,77.6,56.9,30.30,SSE,167,1.0,6.0,49,0.00,,,0.00,Wunderground v.1.15,2013-08-25 17:40:00,
2013-08-25 13:45:00,77.4,58.4,30.29,SSE,152,2.0,6.0,52,0.00,,,0.00,Wunderground v.1.15,2013-08-25 17:45:00,
2013-08-25 13:55:00,77.0,56.4,30.29,SSW,205,1.0,6.0,49,0.00,,,0.00,Wunderground v.1.15,2013-08-25 17:55:00,
2013-08-25 14:00:00,77.0,59.6,30.28,SE,140,1.0,6.0,55,0.00,,,0.00,Wunderground v.1.15,2013-08-25 18:00:00,
2013-08-25 14:05:00,76.8,56.8,30.28,SSE,159,2.0,6.0,50,0.00,,,0.00,Wunderground v.1.15,2013-08-25 18:05:00,
2013-08-25 14:10:00,76.8,58.4,30.28,SE,145,1.0,1.0,53,0.00,,,0.00,Wunderground v.1.15,2013-08-25 18:10:00,
2013-08-25 14:20:00,77.0,56.4,30.28,East,96,2.0,5.0,49,0.00,,,0.00,Wunderground v.1.15,2013-08-25 18:20:00,
2013-08-25 14:30:00,77.2,58.7,30.27,SSW,203,2.0,2.0,53,0.00,,,0.00,Wunderground v.1.15,2013-08-25 18:30:00,
2013-08-25 14:35:00,77.0,58.0,30.27,ESE,104,2.0,7.0,52,0.00,,,0.00,Wunderground v.1.15,2013-08-25 18:35:00,
2013-08-25 14:40:00,77.0,57.5,30.27,ESE,109,1.0,7.0,51,0.00,,,0.00,Wunderground v.1.15,2013-08-25 18:40:00,
2013-08-25 14:45:00,76.8,59.4,30.27,South,175,2.0,7.0,55,0.00,,,0.00,Wunderground v.1.15,2013-08-25 18:45:00,
2013-08-25 14:50:00,76.7,61.8,30.26,ESE,113,2.0,7.0,60,0.00,,,0.00,Wunderground v.1.15,2013-08-25 18:50:00,
2013-08-25 14:55:00,76.5,57.0,30.26,East,100,1.0,7.0,51,0.00,,,0.00,Wunderground v.1.15,2013-08-25 18:55:00,
2013-08-25 15:05:00,76.5,58.6,30.25,WSW,250,1.0,2.0,54,0.00,,,0.00,Wunderground v.1.15,2013-08-25 19:05:00,
2013-08-25 15:10:00,76.5,57.0,30.25,SE,144,1.0,1.0,51,0.00,,,0.00,Wunderground v.1.15,2013-08-25 19:10:00,
2013-08-25 15:15:00,76.7,57.2,30.25,East,96,1.0,1.0,51,0.00,,,0.00,Wunderground v.1.15,2013-08-25 19:15:00,
2013-08-25 15:20:00,76.7,56.7,30.25,SE,127,1.0,1.0,50,0.00,,,0.00,Wunderground v.1.15,2013-08-25 19:20:00,
2013-08-25 15:25:00,76.7,56.7,30.25,SE,139,2.0,2.0,50,0.00,,,0.00,Wunderground v.1.15,2013-08-25 19:25:00,
2013-08-25 15:35:00,76.5,60.6,30.24,South,183,1.0,5.0,58,0.00,,,0.00,Wunderground v.1.15,2013-08-25 19:35:00,
2013-08-25 15:40:00,76.3,56.8,30.24,South,173,1.0,1.0,51,0.00,,,0.00,Wunderground v.1.15,2013-08-25 19:40:00,
2013-08-25 15:45:00,76.1,60.2,30.24,South,179,0.0,5.0,58,0.00,,,0.00,Wunderground v.1.15,2013-08-25 19:45:00,
2013-08-25 15:50:00,76.0,62.9,30.24,South,178,1.0,5.0,64,0.00,,,0.00,Wunderground v.1.15,2013-08-25 19:50:00,
2013-08-25 16:00:00,75.4,60.1,30.24,SSE,157,1.0,5.0,59,0.00,,,0.00,Wunderground v.1.15,2013-08-25 20:00:00,
2013-08-25 16:05:00,75.4,61.9,30.24,ESE,117,1.0,5.0,63,0.00,,,0.00,Wunderground v.1.15,2013-08-25 20:05:00,
2013-08-25 16:10:00,75.4,62.4,30.23,NW,325,1.0,1.0,64,0.00,,,0.00,Wunderground v.1.15,2013-08-25 20:10:00,
2013-08-25 16:15:00,75.4,62.4,30.23,NW,325,0.0,2.0,64,0.00,,,0.00,Wunderground v.1.15,2013-08-25 20:15:00,
2013-08-25 16:20:00,75.3,63.2,30.23,NNW,337,0.0,0.0,66,0.00,,,0.00,Wunderground v.1.15,2013-08-25 20:20:00,
2013-08-25 16:25:00,75.1,61.2,30.23,SW,226,0.0,0.0,62,0.00,,,0.00,Wunderground v.1.15,2013-08-25 20:25:00,
2013-08-25 16:35:00,74.6,62.5,30.22,South,181,1.0,3.0,66,0.00,,,0.00,Wunderground v.1.15,2013-08-25 20:35:00,
2013-08-25 16:40:00,74.4,61.4,30.22,East,83,1.0,1.0,64,0.00,,,0.00,Wunderground v.1.15,2013-08-25 20:40:00,
2013-08-25 16:45:00,74.4,59.6,30.22,ESE,116,1.0,4.0,60,0.00,,,0.00,Wunderground v.1.15,2013-08-25 20:45:00,
2013-08-25 16:55:00,74.4,62.7,30.21,ESE,123,1.0,2.0,67,0.00,,,0.00,Wunderground v.1.15,2013-08-25 20:55:00,
2013-08-25 17:00:00,74.0,63.2,30.21,SE,140,1.0,1.0,69,0.00,,,0.00,Wunderground v.1.15,2013-08-25 21:00:00,
2013-08-25 17:05:00,73.7,62.5,30.21,SE,132,1.0,1.0,68,0.00,,,0.00,Wunderground v.1.15,2013-08-25 21:05:00,
2013-08-25 17:10:00,73.5,62.7,30.21,SW,225,1.0,1.0,69,0.00,,,0.00,Wunderground v.1.15,2013-08-25 21:10:00,
2013-08-25 17:15:00,73.2,62.8,30.21,SW,225,0.0,1.0,70,0.00,,,0.00,Wunderground v.1.15,2013-08-25 21:15:00,
2013-08-25 17:20:00,73.0,63.4,30.21,SSW,207,0.0,0.0,72,0.00,,,0.00,Wunderground v.1.15,2013-08-25 21:20:00,
2013-08-25 17:25:00,72.7,62.8,30.21,SSW,207,0.0,0.0,71,0.00,,,0.00,Wunderground v.1.15,2013-08-25 21:25:00,
2013-08-25 17:30:00,72.3,63.2,30.21,WSW,255,0.0,0.0,73,0.00,,,0.00,Wunderground v.1.15,2013-08-25 21:30:00,
2013-08-25 17:40:00,71.8,63.1,30.21,SSW,208,0.0,7.0,74,0.00,,,0.00,Wunderground v.1.15,2013-08-25 21:40:00,
2013-08-25 17:50:00,71.1,61.6,30.20,SSW,208,0.0,0.0,72,0.00,,,0.00,Wunderground v.1.15,2013-08-25 21:50:00,
2013-08-25 17:55:00,70.8,61.7,30.20,SSW,208,0.0,0.0,73,0.00,,,0.00,Wunderground v.1.15,2013-08-25 21:55:00,
2013-08-25 18:00:00,70.4,60.9,30.20,SSW,208,0.0,0.0,72,0.00,,,0.00,Wunderground v.1.15,2013-08-25 22:00:00,
2013-08-25 18:10:00,69.8,61.1,30.20,SSW,208,0.0,0.0,74,0.00,,,0.00,Wunderground v.1.15,2013-08-25 22:10:00,
2013-08-25 18:15:00,69.4,60.8,30.19,SSW,208,0.0,0.0,74,0.00,,,0.00,Wunderground v.1.15,2013-08-25 22:15:00,
2013-08-25 18:20:00,69.3,61.8,30.19,SSW,208,0.0,0.0,77,0.00,,,0.00,Wunderground v.1.15,2013-08-25 22:20:00,
2013-08-25 18:25:00,68.9,61.4,30.19,SSW,208,0.0,0.0,77,0.00,,,0.00,Wunderground v.1.15,2013-08-25 22:25:00,
2013-08-25 18:35:00,68.4,61.6,30.19,SSW,208,0.0,1.0,79,0.00,,,0.00,Wunderground v.1.15,2013-08-25 22:35:00,
2013-08-25 18:40:00,68.1,61.3,30.19,SSW,208,0.0,1.0,79,0.00,,,0.00,Wunderground v.1.15,2013-08-25 22:40:00,
2013-08-25 18:45:00,67.6,60.5,30.19,SSW,208,0.0,1.0,78,0.00,,,0.00,Wunderground v.1.15,2013-08-25 22:45:00,
2013-08-25 18:55:00,66.9,61.2,30.19,SSW,208,0.0,1.0,82,0.00,,,0.00,Wunderground v.1.15,2013-08-25 22:55:00,
2013-08-25 19:00:00,66.6,60.6,30.19,SSW,208,0.0,1.0,81,0.00,,,0.00,Wunderground v.1.15,2013-08-25 23:00:00,
2013-08-25 19:05:00,66.3,60.6,30.19,SSW,208,0.0,1.0,82,0.00,,,0.00,Wunderground v.1.15,2013-08-25 23:05:00,
2013-08-25 19:15:00,65.6,59.3,30.19,SSW,208,0.0,0.0,80,0.00,,,0.00,Wunderground v.1.15,2013-08-25 23:15:00,
2013-08-25 19:20:00,65.5,58.8,30.19,SSW,208,0.0,0.0,79,0.00,,,0.00,Wunderground v.1.15,2013-08-25 23:20:00,
2013-08-25 19:25:00,65.2,59.2,30.19,SSW,208,0.0,0.0,81,0.00,,,0.00,Wunderground v.1.15,2013-08-25 23:25:00,
2013-08-25 19:35:00,64.5,58.9,30.19,SSW,208,0.0,1.0,82,0.00,,,0.00,Wunderground v.1.15,2013-08-25 23:35:00,
2013-08-25 19:40:00,64.3,59.0,30.19,SSW,208,0.0,1.0,83,0.00,,,0.00,Wunderground v.1.15,2013-08-25 23:40:00,
2013-08-25 19:45:00,64.0,58.7,30.18,SSW,208,0.0,1.0,83,0.00,,,0.00,Wunderground v.1.15,2013-08-25 23:45:00,
2013-08-25 19:50:00,63.7,58.8,30.19,SSW,208,0.0,1.0,84,0.00,,,0.00,Wunderground v.1.15,2013-08-25 23:50:00,
2013-08-25 20:00:00,63.2,58.3,30.18,SSW,208,0.0,1.0,84,0.00,,,0.00,Wunderground v.1.15,2013-08-26 00:00:00,
2013-08-25 20:05:00,63.1,58.2,30.19,SSW,208,0.0,1.0,84,0.00,,,0.00,Wunderground v.1.15,2013-08-26 00:05:00,
2013-08-25 20:10:00,62.9,58.6,30.19,SSW,208,0.0,0.0,86,0.00,,,0.00,Wunderground v.1.15,2013-08-26 00:10:00,
2013-08-25 20:20:00,62.6,58.7,30.19,SSW,208,0.0,0.0,87,0.00,,,0.00,Wunderground v.1.15,2013-08-26 00:20:00,
2013-08-25 20:25:00,62.4,58.5,30.19,SSW,208,0.0,0.0,87,0.00,,,0.00,Wunderground v.1.15,2013-08-26 00:25:00,
2013-08-25 20:30:00,62.3,58.4,30.19,SSW,208,0.0,0.0,87,0.00,,,0.00,Wunderground v.1.15,2013-08-26 00:30:00,
2013-08-25 20:40:00,62.0,58.4,30.19,SSW,208,0.0,0.0,88,0.00,,,0.00,Wunderground v.1.15,2013-08-26 00:40:00,
2013-08-25 20:45:00,62.0,58.4,30.19,SSW,208,0.0,0.0,88,0.00,,,0.00,Wunderground v.1.15,2013-08-26 00:45:00,
2013-08-25 20:50:00,61.8,58.2,30.19,SSW,208,0.0,0.0,88,0.00,,,0.00,Wunderground v.1.15,2013-08-26 00:50:00,
2013-08-25 20:55:00,61.6,58.0,30.19,SSW,208,0.0,0.0,88,0.00,,,0.00,Wunderground v.1.15,2013-08-26 00:55:00,
2013-08-25 21:05:00,61.3,57.7,30.19,SSW,208,0.0,0.0,88,0.00,,,0.00,Wunderground v.1.15,2013-08-26 01:05:00,
2013-08-25 21:10:00,61.2,57.9,30.18,SSW,208,0.0,0.0,89,0.00,,,0.00,Wunderground v.1.15,2013-08-26 01:10:00,
2013-08-25 21:20:00,60.9,57.9,30.19,SSW,208,0.0,0.0,90,0.00,,,0.00,Wunderground v.1.15,2013-08-26 01:20:00,
2013-08-25 21:25:00,60.7,57.7,30.18,SSW,208,0.0,0.0,90,0.00,,,0.00,Wunderground v.1.15,2013-08-26 01:25:00,
2013-08-25 21:30:00,60.7,57.7,30.18,SSW,208,0.0,0.0,90,0.00,,,0.00,Wunderground v.1.15,2013-08-26 01:30:00,
2013-08-25 21:35:00,60.5,57.6,30.18,SSW,208,0.0,0.0,90,0.00,,,0.00,Wunderground v.1.15,2013-08-26 01:35:00,
2013-08-25 21:45:00,60.2,57.3,30.18,SSW,208,0.0,0.0,90,0.00,,,0.00,Wunderground v.1.15,2013-08-26 01:45:00,
2013-08-25 21:50:00,60.1,57.5,30.18,SSW,208,0.0,0.0,91,0.00,,,0.00,Wunderground v.1.15,2013-08-26 01:50:00,
2013-08-25 21:55:00,59.9,57.3,30.18,SSW,208,0.0,0.0,91,0.00,,,0.00,Wunderground v.1.15,2013-08-26 01:55:00,
2013-08-25 22:05:00,59.8,57.5,30.19,SSW,208,0.0,0.0,92,0.00,,,0.00,Wunderground v.1.15,2013-08-26 02:05:00,
2013-08-25 22:10:00,59.8,57.5,30.19,SSW,208,0.0,0.0,92,0.00,,,0.00,Wunderground v.1.15,2013-08-26 02:10:00,
2013-08-25 22:15:00,59.6,57.3,30.19,SSW,208,0.0,0.0,92,0.00,,,0.00,Wunderground v.1.15,2013-08-26 02:15:00,
2013-08-25 22:25:00,59.5,57.2,30.19,SSW,208,0.0,0.0,92,0.00,,,0.00,Wunderground v.1.15,2013-08-26 02:25:00,
2013-08-25 22:30:00,59.5,57.2,30.19,SSW,208,0.0,0.0,92,0.00,,,0.00,Wunderground v.1.15,2013-08-26 02:30:00,
2013-08-25 22:35:00,59.5,57.5,30.19,SSW,208,0.0,0.0,93,0.00,,,0.00,Wunderground v.1.15,2013-08-26 02:35:00,
2013-08-25 22:40:00,59.5,57.5,30.18,SSW,208,0.0,0.0,93,0.00,,,0.00,Wunderground v.1.15,2013-08-26 02:40:00,
2013-08-25 22:50:00,59.3,57.3,30.18,SSW,208,0.0,0.0,93,0.00,,,0.00,Wunderground v.1.15,2013-08-26 02:50:00,
2013-08-25 22:55:00,59.3,57.3,30.18,SSW,208,0.0,0.0,93,0.00,,,0.00,Wunderground v.1.15,2013-08-26 02:55:00,
2013-08-25 23:00:00,59.3,57.3,30.18,SSW,208,0.0,0.0,93,0.00,,,0.00,Wunderground v.1.15,2013-08-26 03:00:00,
2013-08-25 23:10:00,59.3,57.3,30.18,SSW,208,0.0,0.0,93,0.00,,,0.00,Wunderground v.1.15,2013-08-26 03:10:00,
2013-08-25 23:20:00,59.3,57.3,30.18,SSW,208,0.0,0.0,93,0.00,,,0.00,Wunderground v.1.15,2013-08-26 03:20:00,
2013-08-25 23:25:00,59.3,57.3,30.18,SSW,208,0.0,0.0,93,0.00,,,0.00,Wunderground v.1.15,2013-08-26 03:25:00,
2013-08-25 23:30:00,59.3,57.6,30.18,SSW,208,0.0,0.0,94,0.00,,,0.00,Wunderground v.1.15,2013-08-26 03:30:00,
2013-08-25 23:35:00,59.3,57.6,30.18,SSW,208,0.0,0.0,94,0.00,,,0.00,Wunderground v.1.15,2013-08-26 03:35:00,
2013-08-25 23:45:00,59.3,57.3,30.18,SSW,208,0.0,0.0,93,0.00,,,0.00,Wunderground v.1.15,2013-08-26 03:45:00,
2013-08-25 23:50:00,59.3,57.3,30.18,SSW,208,0.0,0.0,93,0.00,,,0.00,Wunderground v.1.15,2013-08-26 03:50:00,
2013-08-25 23:55:00,59.3,57.3,30.18,SSW,208,0.0,0.0,93,0.00,,,0.00,Wunderground v.1.15,2013-08-26 03:55:00,